Time;durP1;ratioP1;P1;durP2;ratioP2;P2;SDS_P1;SDS_P2;PMS_P1;PMS_P2;Temp;Humidity;BMP_temperature;BMP_pressure;BME280_temperature;BME280_humidity;BME280_pressure;Samples;Min_cycle;Max_cycle;Signal;HPM_P1;HPM_P2
2022/10/20 00:00:31;;;;;;;;;;;;;;;;;;5075782;28;20364;-61
2022/10/20 00:02:56;;;;;;;;;;;;;;;;;;5076533;28;20356;-61
2022/10/20 00:05:21;;;;;;;;;;;;;;;;;;5074500;28;20007;-61
2022/10/20 00:07:46;;;;;;;;;;;;;;;;;;5083895;28;19908;-61
2022/10/20 00:10:11;;;;;;;;;;;;;;;;;;5066615;28;19913;-61
2022/10/20 00:12:36;;;;;;;;;;;;;;;;;;5059116;28;19920;-62
2022/10/20 00:15:02;;;;;;;;;;;;;;;;;;5106065;28;19978;-61
2022/10/20 00:17:27;;;;;;;;;;;;;;;;;;5073743;28;20292;-61
2022/10/20 00:19:52;;;;;;;;;;;;;;;;;;5091171;28;20003;-61
2022/10/20 00:22:17;;;;;;;;;;;;;;;;;;5073445;28;19920;-62
2022/10/20 00:24:43;;;;;;;;;;;;;;;;;;5089399;28;19982;-62
2022/10/20 00:27:08;;;;;;;;;;;;;;;;;;5072509;28;19965;-62
2022/10/20 00:29:33;;;;;;;;;;;;;;;;;;5070879;28;19913;-62
2022/10/20 00:31:58;;;;;;;;;;;;;;;;;;5073482;28;20001;-62
2022/10/20 00:34:23;;;;;;;;;;;;;;;;;;5071721;28;19989;-62
2022/10/20 00:36:49;;;;;;;;;;;;;;;;;;5064317;28;19916;-62
2022/10/20 00:39:14;;;;;;;;;;;;;;;;;;5072072;28;19912;-62
2022/10/20 00:41:40;;;;;;;;;;;;;;;;;;5065053;28;20262;-62
2022/10/20 00:44:05;;;;;;;;;;;;;;;;;;5105673;28;19913;-61
2022/10/20 00:46:30;;;;;;;;;;;;;;;;;;5067913;28;19970;-62
2022/10/20 00:48:55;;;;;;;;;;;;;;;;;;5066259;28;19966;-62
2022/10/20 00:51:20;;;;;;;;;;;;;;;;;;5102943;27;19912;-62
2022/10/20 00:53:45;;;;;;;;;;;;;;;;;;5082130;28;19919;-61
2022/10/20 00:56:10;;;;;;;;;;;;;;;;;;5079675;28;19917;-62
2022/10/20 00:58:36;;;;;;;;;;;;;;;;;;5070755;28;19916;-62
2022/10/20 01:01:01;;;;;;;;;;;;;;;;;;5068688;28;19913;-62
2022/10/20 01:03:26;;;;;;;;;;;;;;;;;;5055419;28;19912;-61
2022/10/20 01:05:51;;;;;;;;;;;;;;;;;;5070207;28;19958;-61
2022/10/20 01:08:16;;;;;;;;;;;;;;;;;;5078261;28;19919;-61
2022/10/20 01:10:41;;;;;;;;;;;;;;;;;;5062404;28;19926;-61
2022/10/20 01:13:06;;;;;;;;;;;;;;;;;;5073168;28;19912;-61
2022/10/20 01:15:32;;;;;;;;;;;;;;;;;;5068196;28;19917;-61
2022/10/20 01:17:57;;;;;;;;;;;;;;;;;;5072560;28;20376;-62
2022/10/20 01:20:22;;;;;;;;;;;;;;;;;;5068309;28;20664;-62
2022/10/20 01:22:47;;;;;;;;;;;;;;;;;;5073694;28;20426;-60
2022/10/20 01:25:12;;;;;;;;;;;;;;;;;;5062644;28;19913;-62
2022/10/20 01:27:37;;;;;;;;;;;;;;;;;;5073053;28;19908;-61
2022/10/20 01:30:02;;;;;;;;;;;;;;;;;;5068406;28;19912;-61
2022/10/20 01:32:27;;;;;;;;;;;;;;;;;;5069304;28;19916;-61
2022/10/20 01:34:53;;;;;;;;;;;;;;;;;;5065944;28;19928;-61
2022/10/20 01:37:18;;;;;;;;;;;;;;;;;;5070670;28;19956;-62
2022/10/20 01:39:43;;;;;;;;;;;;;;;;;;5068749;28;19966;-61
2022/10/20 01:42:08;;;;;;;;;;;;;;;;;;5072535;28;19912;-61
2022/10/20 01:44:33;;;;;;;;;;;;;;;;;;5071813;28;19963;-62
2022/10/20 01:46:58;;;;;;;;;;;;;;;;;;5072280;28;19923;-61
2022/10/20 01:49:24;;;;;;;;;;;;;;;;;;5069278;28;19920;-61
2022/10/20 01:51:49;;;;;;;;;;;;;;;;;;5097454;27;19916;-62
2022/10/20 01:54:14;;;;;;;;;;;;;;;;;;5074945;28;20389;-61
2022/10/20 01:56:39;;;;;;;;;;;;;;;;;;5055499;28;19926;-62
2022/10/20 01:59:04;;;;;;;;;;;;;;;;;;5092206;28;19908;-62
2022/10/20 02:01:29;;;;;;;;;;;;;;;;;;5063345;28;19917;-62
2022/10/20 02:03:54;;;;;;;;;;;;;;;;;;5058780;28;19920;-62
2022/10/20 02:06:19;;;;;;;;;;;;;;;;;;5072538;28;19909;-61
2022/10/20 02:08:45;;;;;;;;;;;;;;;;;;5112448;28;19913;-61
2022/10/20 02:11:10;;;;;;;;;;;;;;;;;;5067413;28;19913;-62
2022/10/20 02:13:35;;;;;;;;;;;;;;;;;;5100003;28;19919;-60
2022/10/20 02:16:00;;;;;;;;;;;;;;;;;;5062470;28;19970;-61
2022/10/20 02:18:25;;;;;;;;;;;;;;;;;;5073534;28;19913;-61
2022/10/20 02:20:50;;;;;;;;;;;;;;;;;;5067204;28;20291;-62
2022/10/20 02:23:15;;;;;;;;;;;;;;;;;;5074992;28;19916;-61
2022/10/20 02:25:41;;;;;;;;;;;;;;;;;;5075228;28;19920;-61
2022/10/20 02:28:06;;;;;;;;;;;;;;;;;;5086811;28;20270;-61
2022/10/20 02:30:31;;;;;;;;;;;;;;;;;;5087942;28;20003;-61
2022/10/20 02:32:56;;;;;;;;;;;;;;;;;;5083126;28;20376;-61
2022/10/20 02:35:21;;;;;;;;;;;;;;;;;;5075563;28;19921;-61
2022/10/20 02:37:46;;;;;;;;;;;;;;;;;;5075969;28;19961;-61
2022/10/20 02:40:12;;;;;;;;;;;;;;;;;;5074434;28;19919;-62
2022/10/20 02:42:39;;;;;;;;;;;;;;;;;;5072187;28;20373;-61
2022/10/20 02:45:04;;;;;;;;;;;;;;;;;;5074155;28;19917;-62
2022/10/20 02:47:29;;;;;;;;;;;;;;;;;;5076116;28;20098;-62
2022/10/20 02:49:54;;;;;;;;;;;;;;;;;;5105458;28;19920;-62
2022/10/20 02:52:20;;;;;;;;;;;;;;;;;;5074675;28;20396;-62
2022/10/20 02:54:45;;;;;;;;;;;;;;;;;;5070979;28;19916;-62
2022/10/20 02:57:10;;;;;;;;;;;;;;;;;;5082071;28;19969;-62
2022/10/20 02:59:35;;;;;;;;;;;;;;;;;;5080630;28;19913;-62
2022/10/20 03:02:00;;;;;;;;;;;;;;;;;;5086847;28;19912;-62
2022/10/20 03:04:25;;;;;;;;;;;;;;;;;;5062538;28;20416;-62
2022/10/20 03:06:51;;;;;;;;;;;;;;;;;;5093429;28;19912;-62
2022/10/20 03:09:16;;;;;;;;;;;;;;;;;;5073312;28;20279;-62
2022/10/20 03:11:41;;;;;;;;;;;;;;;;;;5072811;28;20338;-62
2022/10/20 03:14:06;;;;;;;;;;;;;;;;;;5074703;28;19939;-62
2022/10/20 03:16:31;;;;;;;;;;;;;;;;;;5066610;28;20313;-62
2022/10/20 03:18:56;;;;;;;;;;;;;;;;;;5087341;28;20343;-62
2022/10/20 03:21:21;;;;;;;;;;;;;;;;;;5064817;28;20423;-62
2022/10/20 03:23:46;;;;;;;;;;;;;;;;;;5072428;28;19912;-62
2022/10/20 03:26:12;;;;;;;;;;;;;;;;;;5074890;28;19908;-61
2022/10/20 03:28:37;;;;;;;;;;;;;;;;;;5072948;28;19960;-61
2022/10/20 03:31:02;;;;;;;;;;;;;;;;;;5101481;28;19919;-62
2022/10/20 03:33:27;;;;;;;;;;;;;;;;;;5083820;28;19935;-61
2022/10/20 03:35:52;;;;;;;;;;;;;;;;;;5082986;28;19917;-61
2022/10/20 03:38:17;;;;;;;;;;;;;;;;;;5071454;28;19913;-62
2022/10/20 03:40:42;;;;;;;;;;;;;;;;;;5087974;28;19916;-61
2022/10/20 03:43:08;;;;;;;;;;;;;;;;;;5061310;28;19999;-61
2022/10/20 03:45:33;;;;;;;;;;;;;;;;;;5058587;28;20469;-61
2022/10/20 03:47:58;;;;;;;;;;;;;;;;;;5100418;28;20256;-61
2022/10/20 03:50:23;;;;;;;;;;;;;;;;;;5071429;28;20011;-61
2022/10/20 03:52:48;;;;;;;;;;;;;;;;;;5072224;28;19913;-62
2022/10/20 03:55:13;;;;;;;;;;;;;;;;;;5070136;28;19919;-62
2022/10/20 03:57:38;;;;;;;;;;;;;;;;;;5085666;28;20003;-62
2022/10/20 04:00:04;;;;;;;;;;;;;;;;;;5071085;28;19909;-62
2022/10/20 04:02:29;;;;;;;;;;;;;;;;;;5073818;28;20430;-61
2022/10/20 04:04:54;;;;;;;;;;;;;;;;;;5071837;28;20292;-61
2022/10/20 04:07:19;;;;;;;;;;;;;;;;;;5074284;28;19982;-62
2022/10/20 04:09:44;;;;;;;;;;;;;;;;;;5077727;28;19915;-61
2022/10/20 04:12:09;;;;;;;;;;;;;;;;;;5087246;28;19923;-61
2022/10/20 04:14:34;;;;;;;;;;;;;;;;;;5072064;28;19923;-61
2022/10/20 04:17:00;;;;;;;;;;;;;;;;;;5059889;28;19915;-61
2022/10/20 04:19:25;;;;;;;;;;;;;;;;;;5069964;28;19913;-62
2022/10/20 04:21:50;;;;;;;;;;;;;;;;;;5068300;28;20412;-62
2022/10/20 04:24:15;;;;;;;;;;;;;;;;;;5071741;28;20369;-61
2022/10/20 04:26:40;;;;;;;;;;;;;;;;;;5065334;28;20003;-61
2022/10/20 04:29:05;;;;;;;;;;;;;;;;;;5066748;28;19986;-61
2022/10/20 04:31:30;;;;;;;;;;;;;;;;;;5064885;28;19924;-62
2022/10/20 04:33:55;;;;;;;;;;;;;;;;;;5099444;28;20353;-61
2022/10/20 04:36:21;;;;;;;;;;;;;;;;;;5062864;28;19917;-61
2022/10/20 04:38:46;;;;;;;;;;;;;;;;;;5071862;28;19913;-62
2022/10/20 04:41:11;;;;;;;;;;;;;;;;;;5067583;28;19939;-62
2022/10/20 04:43:36;;;;;;;;;;;;;;;;;;5064004;28;19920;-61
2022/10/20 04:46:01;;;;;;;;;;;;;;;;;;5078293;28;19967;-62
2022/10/20 04:48:26;;;;;;;;;;;;;;;;;;5064746;28;19942;-61
2022/10/20 04:50:52;;;;;;;;;;;;;;;;;;5066800;28;20295;-61
2022/10/20 04:53:17;;;;;;;;;;;;;;;;;;5066363;28;20428;-62
2022/10/20 04:55:42;;;;;;;;;;;;;;;;;;5072448;28;19921;-62
2022/10/20 04:58:07;;;;;;;;;;;;;;;;;;5063679;28;20323;-62
2022/10/20 05:00:32;;;;;;;;;;;;;;;;;;5066807;28;19917;-61
2022/10/20 05:02:57;;;;;;;;;;;;;;;;;;5070173;28;20397;-61
2022/10/20 05:05:22;;;;;;;;;;;;;;;;;;5095078;28;19921;-61
2022/10/20 05:07:48;;;;;;;;;;;;;;;;;;5092350;28;19965;-61
2022/10/20 05:10:13;;;;;;;;;;;;;;;;;;5069786;28;20174;-61
2022/10/20 05:12:38;;;;;;;;;;;;;;;;;;5078099;28;20273;-62
2022/10/20 05:15:03;;;;;;;;;;;;;;;;;;5073588;28;19916;-61
2022/10/20 05:17:28;;;;;;;;;;;;;;;;;;5065035;28;19965;-61
2022/10/20 05:19:53;;;;;;;;;;;;;;;;;;5059350;28;19963;-62
2022/10/20 05:22:18;;;;;;;;;;;;;;;;;;5063344;28;19931;-62
2022/10/20 05:24:44;;;;;;;;;;;;;;;;;;5071708;28;19916;-61
2022/10/20 05:27:09;;;;;;;;;;;;;;;;;;5101746;28;19951;-61
2022/10/20 05:29:34;;;;;;;;;;;;;;;;;;5073010;28;19916;-61
2022/10/20 05:31:59;;;;;;;;;;;;;;;;;;5075051;28;19920;-62
2022/10/20 05:34:24;;;;;;;;;;;;;;;;;;5071632;28;20011;-62
2022/10/20 05:36:49;;;;;;;;;;;;;;;;;;5088224;28;20019;-62
2022/10/20 05:39:14;;;;;;;;;;;;;;;;;;5069677;28;19916;-63
2022/10/20 05:41:39;;;;;;;;;;;;;;;;;;5073818;28;19917;-62
2022/10/20 05:44:05;;;;;;;;;;;;;;;;;;5057541;28;20278;-62
2022/10/20 05:46:30;;;;;;;;;;;;;;;;;;5089103;28;19966;-62
2022/10/20 05:48:55;;;;;;;;;;;;;;;;;;5068162;28;19921;-62
2022/10/20 05:51:20;;;;;;;;;;;;;;;;;;5064424;28;19917;-62
2022/10/20 05:53:48;;;;;;;;;;;;;;;;;;5054701;28;20015;-62
2022/10/20 05:56:13;;;;;;;;;;;;;;;;;;5064679;28;19928;-62
2022/10/20 05:58:38;;;;;;;;;;;;;;;;;;5068906;28;20033;-62
2022/10/20 06:01:04;;;;;;;;;;;;;;;;;;5071285;28;19970;-62
2022/10/20 06:03:29;;;;;;;;;;;;;;;;;;5070193;28;19917;-62
2022/10/20 06:05:54;;;;;;;;;;;;;;;;;;5067626;28;19919;-62
2022/10/20 06:08:19;;;;;;;;;;;;;;;;;;5071147;28;19917;-61
2022/10/20 06:10:44;;;;;;;;;;;;;;;;;;5070843;28;19916;-61
2022/10/20 06:13:11;;;;;;;;;;;;;;;;;;5071993;28;20269;-62
2022/10/20 06:15:36;;;;;;;;;;;;;;;;;;5060656;28;19972;-62
2022/10/20 06:18:01;;;;;;;;;;;;;;;;;;5096283;28;19963;-62
2022/10/20 06:20:27;;;;;;;;;;;;;;;;;;5100472;28;20345;-61
2022/10/20 06:22:52;;;;;;;;;;;;;;;;;;5071164;28;19923;-62
2022/10/20 06:25:17;;;;;;;;;;;;;;;;;;5069840;28;20372;-62
2022/10/20 06:27:43;;;;;;;;;;;;;;;;;;5064733;28;19920;-62
2022/10/20 06:30:08;;;;;;;;;;;;;;;;;;5071091;28;19913;-62
2022/10/20 06:32:33;;;;;;;;;;;;;;;;;;5076459;28;19912;-62
2022/10/20 06:35:01;;;;;;;;;;;;;;;;;;5080232;28;19956;-62
2022/10/20 06:37:26;;;;;;;;;;;;;;;;;;5067322;28;20001;-62
2022/10/20 06:39:51;;;;;;;;;;;;;;;;;;5086045;28;19947;-62
2022/10/20 06:42:16;;;;;;;;;;;;;;;;;;5075135;28;20294;-62
2022/10/20 06:44:41;;;;;;;;;;;;;;;;;;5070152;28;19912;-62
2022/10/20 06:47:09;;;;;;;;;;;;;;;;;;5070486;28;19919;-62
2022/10/20 06:49:34;;;;;;;;;;;;;;;;;;5106724;28;19912;-62
2022/10/20 06:51:59;;;;;;;;;;;;;;;;;;5066336;28;20449;-62
2022/10/20 06:54:24;;;;;;;;;;;;;;;;;;5069998;28;19923;-62
2022/10/20 06:56:49;;;;;;;;;;;;;;;;;;5073760;28;19917;-57
2022/10/20 06:59:14;;;;;;;;;;;;;;;;;;5068657;28;19959;-58
2022/10/20 07:01:40;;;;;;;;;;;;;;;;;;5071900;28;19917;-58
2022/10/20 07:04:05;;;;;;;;;;;;;;;;;;5067045;28;20343;-58
2022/10/20 07:06:30;;;;;;;;;;;;;;;;;;5067193;28;19913;-58
2022/10/20 07:08:56;;;;;;;;;;;;;;;;;;5066572;28;20092;-57
2022/10/20 07:11:21;;;;;;;;;;;;;;;;;;5072076;28;19958;-58
2022/10/20 07:13:48;;;;;;;;;;;;;;;;;;5073695;28;19912;-58
2022/10/20 07:16:13;;;;;;;;;;;;;;;;;;5072052;28;19973;-56
2022/10/20 07:18:38;;;;;;;;;;;;;;;;;;5070075;28;19917;-57
2022/10/20 07:21:03;;;;;;;;;;;;;;;;;;5059387;28;19916;-57
2022/10/20 07:23:28;;;;;;;;;;;;;;;;;;5065494;28;20365;-58
2022/10/20 07:25:54;;;;;;;;;;;;;;;;;;5098220;28;21609;-58
2022/10/20 07:28:20;;;;;;;;;;;;;;;;;;5096427;28;19912;-58
2022/10/20 07:30:45;;;;;;;;;;;;;;;;;;5068324;28;19920;-57
2022/10/20 07:33:10;;;;;;;;;;;;;;;;;;5096079;28;20537;-56
2022/10/20 07:35:36;;;;;;;;;;;;;;;;;;5064642;28;20499;-57
2022/10/20 07:38:01;;;;;;;;;;;;;;;;;;5066291;28;20369;-56
2022/10/20 07:40:26;;;;;;;;;;;;;;;;;;5091873;28;19951;-58
2022/10/20 07:42:51;;;;;;;;;;;;;;;;;;5067873;28;19912;-59
2022/10/20 07:45:16;;;;;;;;;;;;;;;;;;5062173;28;20368;-57
2022/10/20 07:47:41;;;;;;;;;;;;;;;;;;5066414;28;20373;-59
2022/10/20 07:50:06;;;;;;;;;;;;;;;;;;5063693;28;19927;-57
2022/10/20 07:52:32;;;;;;;;;;;;;;;;;;5063804;28;19955;-58
2022/10/20 07:54:57;;;;;;;;;;;;;;;;;;5065125;28;19917;-59
2022/10/20 07:57:22;;;;;;;;;;;;;;;;;;5066061;28;20375;-58
2022/10/20 07:59:47;;;;;;;;;;;;;;;;;;5063316;28;20431;-59
2022/10/20 08:02:14;;;;;;;;;;;;;;;;;;5063605;28;20385;-57
2022/10/20 08:04:40;;;;;;;;;;;;;;;;;;5062928;28;19962;-59
2022/10/20 08:07:05;;;;;;;;;;;;;;;;;;5068548;28;19946;-58
2022/10/20 08:09:30;;;;;;;;;;;;;;;;;;5062996;28;19916;-57
2022/10/20 08:11:56;;;;;;;;;;;;;;;;;;5065231;28;19913;-57
2022/10/20 08:14:21;;;;;;;;;;;;;;;;;;5065796;28;19965;-57
2022/10/20 08:16:46;;;;;;;;;;;;;;;;;;5069665;28;19966;-58
2022/10/20 08:19:11;;;;;;;;;;;;;;;;;;5064823;28;19908;-58
2022/10/20 08:21:36;;;;;;;;;;;;;;;;;;5056482;28;19916;-58
2022/10/20 08:24:02;;;;;;;;;;;;;;;;;;5064264;28;19912;-57
2022/10/20 08:26:27;;;;;;;;;;;;;;;;;;5065459;28;19920;-56
2022/10/20 08:28:52;;;;;;;;;;;;;;;;;;5064328;28;20369;-57
2022/10/20 08:31:18;;;;;;;;;;;;;;;;;;5068541;28;20373;-59
2022/10/20 08:33:43;;;;;;;;;;;;;;;;;;5063485;28;20292;-59
2022/10/20 08:36:08;;;;;;;;;;;;;;;;;;5068298;28;20292;-56
2022/10/20 08:38:33;;;;;;;;;;;;;;;;;;5062911;28;20011;-60
2022/10/20 08:40:58;;;;;;;;;;;;;;;;;;5063940;28;19920;-62
2022/10/20 08:43:23;;;;;;;;;;;;;;;;;;5067483;28;19923;-62
2022/10/20 08:45:49;;;;;;;;;;;;;;;;;;5068228;28;19913;-61
2022/10/20 08:48:14;;;;;;;;;;;;;;;;;;5069745;28;20368;-61
2022/10/20 08:50:39;;;;;;;;;;;;;;;;;;5065593;28;19913;-61
2022/10/20 08:53:04;;;;;;;;;;;;;;;;;;5066382;28;20049;-61
2022/10/20 08:55:29;;;;;;;;;;;;;;;;;;5072386;28;19970;-61
2022/10/20 08:57:54;;;;;;;;;;;;;;;;;;5068959;28;20293;-61
2022/10/20 09:00:19;;;;;;;;;;;;;;;;;;5068959;28;19999;-61
2022/10/20 09:02:45;;;;;;;;;;;;;;;;;;5071043;28;19913;-61
2022/10/20 09:05:10;;;;;;;;;;;;;;;;;;5099070;28;19990;-62
2022/10/20 09:07:35;;;;;;;;;;;;;;;;;;5069365;28;19961;-61
2022/10/20 09:10:00;;;;;;;;;;;;;;;;;;5094880;27;19913;-60
2022/10/20 09:12:25;;;;;;;;;;;;;;;;;;5067319;28;19939;-61
2022/10/20 09:14:50;;;;;;;;;;;;;;;;;;5071561;28;19926;-61
2022/10/20 09:17:15;;;;;;;;;;;;;;;;;;5072972;28;20006;-60
2022/10/20 09:19:41;;;;;;;;;;;;;;;;;;5095492;28;20061;-60
2022/10/20 09:22:06;;;;;;;;;;;;;;;;;;5069948;28;19916;-60
2022/10/20 09:24:31;;;;;;;;;;;;;;;;;;5071725;28;20363;-60
2022/10/20 09:26:56;;;;;;;;;;;;;;;;;;5072719;28;19916;-60
2022/10/20 09:29:21;;;;;;;;;;;;;;;;;;5072287;28;19919;-61
2022/10/20 09:31:46;;;;;;;;;;;;;;;;;;5073083;28;20442;-61
2022/10/20 09:34:11;;;;;;;;;;;;;;;;;;5072406;28;19935;-61
2022/10/20 09:36:37;;;;;;;;;;;;;;;;;;5072411;28;19954;-61
2022/10/20 09:39:02;;;;;;;;;;;;;;;;;;5088445;28;20364;-60
2022/10/20 09:41:27;;;;;;;;;;;;;;;;;;5088828;28;19995;-61
2022/10/20 09:43:52;;;;;;;;;;;;;;;;;;5071527;28;19912;-61
2022/10/20 09:46:17;;;;;;;;;;;;;;;;;;5070135;28;19958;-61
2022/10/20 09:48:42;;;;;;;;;;;;;;;;;;5052708;28;19908;-60
2022/10/20 09:51:07;;;;;;;;;;;;;;;;;;5097560;28;19952;-61
2022/10/20 09:53:33;;;;;;;;;;;;;;;;;;5071120;28;19920;-61
2022/10/20 09:55:58;;;;;;;;;;;;;;;;;;5071742;28;19959;-61
2022/10/20 09:58:23;;;;;;;;;;;;;;;;;;5072665;28;19908;-62
2022/10/20 10:00:48;;;;;;;;;;;;;;;;;;5072406;28;19915;-61
2022/10/20 10:03:18;;;;;;;;;;;;;;;;;;5070736;28;20332;-61
2022/10/20 10:05:44;;;;;;;;;;;;;;;;;;5074923;28;19943;-61
2022/10/20 10:08:09;;;;;;;;;;;;;;;;;;5072343;28;19958;-60
2022/10/20 10:10:34;;;;;;;;;;;;;;;;;;5071224;28;19915;-61
2022/10/20 10:12:59;;;;;;;;;;;;;;;;;;5068566;28;20364;-61
2022/10/20 10:15:24;;;;;;;;;;;;;;;;;;5071201;28;19966;-64
2022/10/20 10:17:49;;;;;;;;;;;;;;;;;;5104816;28;20304;-60
2022/10/20 10:20:18;;;;;;;;;;;;;;;;;;5097063;28;20288;-60
2022/10/20 10:22:43;;;;;;;;;;;;;;;;;;5067310;28;19923;-61
2022/10/20 10:25:08;;;;;;;;;;;;;;;;;;5071995;28;19912;-61
2022/10/20 10:27:33;;;;;;;;;;;;;;;;;;5072156;28;19955;-60
2022/10/20 10:29:58;;;;;;;;;;;;;;;;;;5071996;28;19908;-61
2022/10/20 10:32:23;;;;;;;;;;;;;;;;;;5070205;28;20335;-60
2022/10/20 10:34:49;;;;;;;;;;;;;;;;;;5068763;28;20742;-60
2022/10/20 10:37:14;;;;;;;;;;;;;;;;;;5072674;28;19955;-61
2022/10/20 10:39:39;;;;;;;;;;;;;;;;;;5070892;28;20409;-61
2022/10/20 10:42:04;;;;;;;;;;;;;;;;;;5071218;28;20372;-60
2022/10/20 10:44:29;;;;;;;;;;;;;;;;;;5072820;28;20387;-61
2022/10/20 10:46:54;;;;;;;;;;;;;;;;;;5073717;28;20381;-62
2022/10/20 10:49:20;;;;;;;;;;;;;;;;;;5077275;28;19908;-61
2022/10/20 10:51:45;;;;;;;;;;;;;;;;;;5073585;28;20007;-60
2022/10/20 10:54:10;;;;;;;;;;;;;;;;;;5079056;28;20384;-60
2022/10/20 10:56:35;;;;;;;;;;;;;;;;;;5073754;28;19912;-60
2022/10/20 10:59:00;;;;;;;;;;;;;;;;;;5076338;28;19909;-60
2022/10/20 11:01:25;;;;;;;;;;;;;;;;;;5076217;28;19960;-61
2022/10/20 11:03:50;;;;;;;;;;;;;;;;;;5073972;28;19935;-59
2022/10/20 11:06:16;;;;;;;;;;;;;;;;;;5075825;28;19916;-61
2022/10/20 11:08:41;;;;;;;;;;;;;;;;;;5077754;28;19923;-61
2022/10/20 11:11:06;;;;;;;;;;;;;;;;;;5077299;28;20322;-61
2022/10/20 11:13:31;;;;;;;;;;;;;;;;;;5074808;28;19918;-61
2022/10/20 11:15:56;;;;;;;;;;;;;;;;;;5076738;28;20011;-61
2022/10/20 11:18:21;;;;;;;;;;;;;;;;;;5073531;28;19920;-61
2022/10/20 11:20:46;;;;;;;;;;;;;;;;;;5071660;28;19970;-60
2022/10/20 11:23:11;;;;;;;;;;;;;;;;;;5071257;28;20003;-63
2022/10/20 11:25:37;;;;;;;;;;;;;;;;;;5070456;28;19920;-61
2022/10/20 11:28:02;;;;;;;;;;;;;;;;;;5102225;28;19917;-60
2022/10/20 11:30:27;;;;;;;;;;;;;;;;;;5069175;28;19948;-60
2022/10/20 11:32:52;;;;;;;;;;;;;;;;;;5074661;28;19909;-61
2022/10/20 11:35:17;;;;;;;;;;;;;;;;;;5074818;28;19973;-60
2022/10/20 11:37:42;;;;;;;;;;;;;;;;;;5072326;28;19916;-59
2022/10/20 11:40:07;;;;;;;;;;;;;;;;;;5070164;28;20265;-60
2022/10/20 11:42:32;;;;;;;;;;;;;;;;;;5071197;28;20114;-60
2022/10/20 11:44:58;;;;;;;;;;;;;;;;;;5071286;28;19956;-60
2022/10/20 11:47:23;;;;;;;;;;;;;;;;;;5069579;28;19916;-60
2022/10/20 11:49:48;;;;;;;;;;;;;;;;;;5067227;28;19924;-60
2022/10/20 11:52:13;;;;;;;;;;;;;;;;;;5102849;28;19912;-59
2022/10/20 11:54:38;;;;;;;;;;;;;;;;;;5067904;28;20453;-59
2022/10/20 11:57:03;;;;;;;;;;;;;;;;;;5068245;28;20001;-60
2022/10/20 11:59:28;;;;;;;;;;;;;;;;;;5070353;28;19921;-60
2022/10/20 12:01:54;;;;;;;;;;;;;;;;;;5071059;28;19919;-60
2022/10/20 12:04:19;;;;;;;;;;;;;;;;;;5071526;28;20003;-60
2022/10/20 12:06:44;;;;;;;;;;;;;;;;;;5067798;28;19973;-60
2022/10/20 12:09:09;;;;;;;;;;;;;;;;;;5063823;28;19920;-60
2022/10/20 12:11:34;;;;;;;;;;;;;;;;;;5071664;28;19912;-60
2022/10/20 12:13:59;;;;;;;;;;;;;;;;;;5071741;28;19960;-60
2022/10/20 12:16:24;;;;;;;;;;;;;;;;;;5071001;28;20700;-60
2022/10/20 12:18:49;;;;;;;;;;;;;;;;;;5068617;28;20447;-60
2022/10/20 12:21:15;;;;;;;;;;;;;;;;;;5095578;28;19920;-60
2022/10/20 12:23:40;;;;;;;;;;;;;;;;;;5071856;28;19921;-60
2022/10/20 12:26:05;;;;;;;;;;;;;;;;;;5072116;28;19913;-60
2022/10/20 12:28:30;;;;;;;;;;;;;;;;;;5071827;28;19967;-60
2022/10/20 12:30:55;;;;;;;;;;;;;;;;;;5067937;28;19920;-61
2022/10/20 12:33:20;;;;;;;;;;;;;;;;;;5073536;28;20330;-60
2022/10/20 12:35:45;;;;;;;;;;;;;;;;;;5082947;28;20268;-61
2022/10/20 12:38:11;;;;;;;;;;;;;;;;;;5083444;28;20416;-61
2022/10/20 12:40:36;;;;;;;;;;;;;;;;;;5086990;28;19908;-60
2022/10/20 12:43:01;;;;;;;;;;;;;;;;;;5092773;28;19912;-60
2022/10/20 12:45:26;;;;;;;;;;;;;;;;;;5094071;28;19999;-61
2022/10/20 12:47:51;;;;;;;;;;;;;;;;;;5086185;28;19962;-60
2022/10/20 12:50:16;;;;;;;;;;;;;;;;;;5070785;28;19959;-60
2022/10/20 12:52:41;;;;;;;;;;;;;;;;;;5073560;28;19915;-60
2022/10/20 12:55:06;;;;;;;;;;;;;;;;;;5072999;28;19913;-60
2022/10/20 12:57:35;;;;;;;;;;;;;;;;;;5073345;28;19908;-60
2022/10/20 13:00:00;;;;;;;;;;;;;;;;;;5072888;28;20403;-60
2022/10/20 13:02:25;;;;;;;;;;;;;;;;;;5071820;28;19958;-61
2022/10/20 13:04:50;;;;;;;;;;;;;;;;;;5073189;28;19964;-60
2022/10/20 13:07:15;;;;;;;;;;;;;;;;;;5080391;28;19959;-60
2022/10/20 13:09:41;;;;;;;;;;;;;;;;;;5079311;28;19931;-60
2022/10/20 13:12:06;;;;;;;;;;;;;;;;;;5073014;28;19904;-60
2022/10/20 13:14:31;;;;;;;;;;;;;;;;;;5073182;28;20342;-62
2022/10/20 13:16:56;;;;;;;;;;;;;;;;;;5072826;28;20360;-60
2022/10/20 13:19:21;;;;;;;;;;;;;;;;;;5071458;28;19912;-61
2022/10/20 13:21:46;;;;;;;;;;;;;;;;;;5069522;28;19917;-60
2022/10/20 13:24:12;;;;;;;;;;;;;;;;;;5071132;28;19982;-61
2022/10/20 13:26:38;;;;;;;;;;;;;;;;;;5072234;28;19909;-60
2022/10/20 13:29:03;;;;;;;;;;;;;;;;;;5072843;28;19973;-62
2022/10/20 13:31:28;;;;;;;;;;;;;;;;;;5070346;28;19917;-60
2022/10/20 13:33:55;;;;;;;;;;;;;;;;;;5072705;28;19922;-60
2022/10/20 13:36:20;;;;;;;;;;;;;;;;;;5071136;28;20388;-60
2022/10/20 13:38:45;;;;;;;;;;;;;;;;;;5078369;28;19935;-61
2022/10/20 13:41:10;;;;;;;;;;;;;;;;;;5068613;28;20016;-60
2022/10/20 13:43:35;;;;;;;;;;;;;;;;;;5072312;28;19920;-60
2022/10/20 13:46:00;;;;;;;;;;;;;;;;;;5079286;28;19912;-60
2022/10/20 13:48:25;;;;;;;;;;;;;;;;;;5090949;28;20337;-60
2022/10/20 13:50:51;;;;;;;;;;;;;;;;;;5074883;28;19923;-61
2022/10/20 13:53:19;;;;;;;;;;;;;;;;;;5098370;28;19924;-60
2022/10/20 13:55:44;;;;;;;;;;;;;;;;;;5058870;28;19982;-60
2022/10/20 13:58:09;;;;;;;;;;;;;;;;;;5067960;28;20431;-60
2022/10/20 14:00:34;;;;;;;;;;;;;;;;;;5070406;28;19912;-60
2022/10/20 14:03:00;;;;;;;;;;;;;;;;;;5068327;28;19916;-61
2022/10/20 14:05:25;;;;;;;;;;;;;;;;;;5071003;28;19913;-59
2022/10/20 14:07:50;;;;;;;;;;;;;;;;;;5072051;28;19973;-60
2022/10/20 14:10:15;;;;;;;;;;;;;;;;;;5067870;28;19917;-61
2022/10/20 14:12:40;;;;;;;;;;;;;;;;;;5067290;28;20288;-60
2022/10/20 14:15:05;;;;;;;;;;;;;;;;;;5064855;28;19923;-60
2022/10/20 14:17:31;;;;;;;;;;;;;;;;;;5074782;28;20265;-62
2022/10/20 14:19:56;;;;;;;;;;;;;;;;;;5072927;28;19916;-60
2022/10/20 14:22:21;;;;;;;;;;;;;;;;;;5075711;28;19921;-60
2022/10/20 14:24:47;;;;;;;;;;;;;;;;;;5072834;28;19967;-61
2022/10/20 14:27:12;;;;;;;;;;;;;;;;;;5073894;28;19913;-60
2022/10/20 14:29:37;;;;;;;;;;;;;;;;;;5080319;28;19928;-63
2022/10/20 14:32:02;;;;;;;;;;;;;;;;;;5089141;28;20341;-59
2022/10/20 14:34:27;;;;;;;;;;;;;;;;;;5072948;28;19962;-61
2022/10/20 14:36:52;;;;;;;;;;;;;;;;;;5081940;28;19915;-60
2022/10/20 14:39:18;;;;;;;;;;;;;;;;;;5075719;28;19915;-60
2022/10/20 14:41:43;;;;;;;;;;;;;;;;;;5075668;28;19909;-61
2022/10/20 14:44:08;;;;;;;;;;;;;;;;;;5073802;28;19913;-60
2022/10/20 14:46:33;;;;;;;;;;;;;;;;;;5105970;28;20007;-60
2022/10/20 14:48:58;;;;;;;;;;;;;;;;;;5095476;28;19915;-60
2022/10/20 14:51:23;;;;;;;;;;;;;;;;;;5073615;28;19927;-59
2022/10/20 14:53:48;;;;;;;;;;;;;;;;;;5073615;28;19916;-61
2022/10/20 14:56:14;;;;;;;;;;;;;;;;;;5067877;28;19956;-60
2022/10/20 14:58:39;;;;;;;;;;;;;;;;;;5074693;28;19913;-61
2022/10/20 15:01:04;;;;;;;;;;;;;;;;;;5072691;28;19912;-62
2022/10/20 15:03:29;;;;;;;;;;;;;;;;;;5071579;28;19991;-59
2022/10/20 15:05:54;;;;;;;;;;;;;;;;;;5068751;28;19978;-59
2022/10/20 15:08:19;;;;;;;;;;;;;;;;;;5062529;28;19962;-59
2022/10/20 15:10:44;;;;;;;;;;;;;;;;;;5055643;28;19936;-59
2022/10/20 15:13:10;;;;;;;;;;;;;;;;;;5065068;28;19959;-59
2022/10/20 15:15:35;;;;;;;;;;;;;;;;;;5104476;28;19927;-60
2022/10/20 15:18:00;;;;;;;;;;;;;;;;;;5071218;28;19912;-60
2022/10/20 15:20:25;;;;;;;;;;;;;;;;;;5098352;27;19916;-60
2022/10/20 15:22:50;;;;;;;;;;;;;;;;;;5068638;28;19921;-60
2022/10/20 15:25:15;;;;;;;;;;;;;;;;;;5066429;28;20226;-60
2022/10/20 15:27:40;;;;;;;;;;;;;;;;;;5066409;28;19924;-60
2022/10/20 15:30:06;;;;;;;;;;;;;;;;;;5070534;28;19912;-60
2022/10/20 15:32:31;;;;;;;;;;;;;;;;;;5072398;28;19916;-60
2022/10/20 15:34:56;;;;;;;;;;;;;;;;;;5082201;28;20000;-61
2022/10/20 15:37:21;;;;;;;;;;;;;;;;;;5075971;28;19924;-60
2022/10/20 15:39:46;;;;;;;;;;;;;;;;;;5070951;28;20884;-60
2022/10/20 15:42:11;;;;;;;;;;;;;;;;;;5066790;28;19915;-60
2022/10/20 15:44:37;;;;;;;;;;;;;;;;;;5069675;28;19939;-60
2022/10/20 15:47:02;;;;;;;;;;;;;;;;;;5070668;28;19913;-60
2022/10/20 15:49:27;;;;;;;;;;;;;;;;;;5072872;28;19916;-59
2022/10/20 15:51:52;;;;;;;;;;;;;;;;;;5071137;28;20020;-61
2022/10/20 15:54:17;;;;;;;;;;;;;;;;;;5081881;28;19913;-60
2022/10/20 15:56:42;;;;;;;;;;;;;;;;;;5071194;28;20252;-60
2022/10/20 15:59:07;;;;;;;;;;;;;;;;;;5076104;28;19912;-59
2022/10/20 16:01:33;;;;;;;;;;;;;;;;;;5082537;28;19912;-61
2022/10/20 16:03:58;;;;;;;;;;;;;;;;;;5072230;28;20323;-61
2022/10/20 16:06:23;;;;;;;;;;;;;;;;;;5073387;28;19916;-60
2022/10/20 16:08:48;;;;;;;;;;;;;;;;;;5063155;28;19920;-60
2022/10/20 16:11:13;;;;;;;;;;;;;;;;;;5083317;28;20044;-60
2022/10/20 16:13:38;;;;;;;;;;;;;;;;;;5100356;28;20096;-59
2022/10/20 16:16:03;;;;;;;;;;;;;;;;;;5093203;28;19935;-60
2022/10/20 16:18:29;;;;;;;;;;;;;;;;;;5071635;28;19919;-60
2022/10/20 16:20:54;;;;;;;;;;;;;;;;;;5066236;28;19913;-60
2022/10/20 16:23:19;;;;;;;;;;;;;;;;;;5076063;28;19919;-61
2022/10/20 16:25:44;;;;;;;;;;;;;;;;;;5076203;28;19915;-60
2022/10/20 16:28:09;;;;;;;;;;;;;;;;;;5100892;28;19912;-61
2022/10/20 16:30:34;;;;;;;;;;;;;;;;;;5067574;28;20402;-60